WetterOnline ( https://www.wetteronline.de )

Wetter aktuell Lichtenhain/Mittelndorf

Aktuelles Wetter: Lichtenhain/Mittelndorf (352m)

6-stündlich | Neueste Meldungen
Ortszeit Temperatur Wetter
Sa, 25.06. 8:00 17.5° C bedeckt
Sa, 25.06. 2:00 17.4° C leichter Regen
Fr, 24.06. 20:00 18.4° C bedeckt
Fr, 24.06. 14:00 27.4° C wolkig
Fr, 24.06. 8:00 21.8° C wolkenlos
Fr, 24.06. 2:00 21.5° C wolkenlos
Do, 23.06. 20:00 27.4° C wolkenlos
Do, 23.06. 14:00 28.7° C wolkenlos
Ortszeit Temperatur Wetter
Sa, 25.06. 13:00 21.0° C bewölkt
Sa, 25.06. 12:40 21.2° C bedeckt
Sa, 25.06. 12:30 19.6° C bedeckt
Sa, 25.06. 12:20 19.6° C bedeckt
Sa, 25.06. 12:10 19.4° C bedeckt
Sa, 25.06. 12:00 19.2° C bedeckt
Sa, 25.06. 11:50 19.2° C bedeckt
Sa, 25.06. 11:30 18.8° C bedeckt
Sa, 25.06. 11:00 18.8° C bedeckt
Sa, 25.06. 10:30 18.2° C bedeckt
Sa, 25.06. 10:00 18.1° C bedeckt
Ortszeit Relative Feuchte Sichtweite
Sa, 25.06. 8:00 96% 12 km
Sa, 25.06. 2:00 94% 24 km
Fr, 24.06. 20:00 91% 30 km
Fr, 24.06. 14:00 41% 60 km
Fr, 24.06. 8:00 47% 60 km
Fr, 24.06. 2:00 48% 60 km
Do, 23.06. 20:00 31% 55 km
Do, 23.06. 14:00 19% 55 km
Ortszeit Relative Feuchte Sichtweite
Sa, 25.06. 13:00 77% 35 km
Sa, 25.06. 12:40 78% -
Sa, 25.06. 12:30 85% 35 km
Sa, 25.06. 12:20 85% -
Sa, 25.06. 12:10 87% -
Sa, 25.06. 12:00 87% 30 km
Sa, 25.06. 11:50 87% -
Sa, 25.06. 11:30 90% 23 km
Sa, 25.06. 11:00 92% 27 km
Sa, 25.06. 10:30 94% 16 km
Sa, 25.06. 10:00 91% 21 km
Ortszeit Niederschlagsmenge Niederschlagsart
Sa, 25.06. 8:00 3 l/m2 in 12 Std. Regen
Sa, 25.06. 2:00 0.1 l/m2 in 6 Std. Regen
Fr, 24.06. 20:00 2 l/m2 in 12 Std. Regen
Fr, 24.06. 14:00 0.0 l/m2 in 6 Std. -
Fr, 24.06. 8:00 0.0 l/m2 in 12 Std. -
Fr, 24.06. 2:00 0.0 l/m2 in 6 Std. -
Do, 23.06. 20:00 0.0 l/m2 in 12 Std. -
Do, 23.06. 14:00 0.0 l/m2 in 6 Std. -
Ortszeit Niederschlagsmenge Niederschlagsart
Sa, 25.06. 13:00 0.0 l/m2 in 1 Std. -
Sa, 25.06. 12:40 keine Meldung -
Sa, 25.06. 12:30 0.0 l/m2 in 1 Std. -
Sa, 25.06. 12:20 keine Meldung -
Sa, 25.06. 12:10 keine Meldung -
Sa, 25.06. 12:00 0.0 l/m2 in 1 Std. -
Sa, 25.06. 11:50 keine Meldung -
Sa, 25.06. 11:30 0.0 l/m2 in 1 Std. -
Sa, 25.06. 11:00 0.0 l/m2 in 1 Std. -
Sa, 25.06. 10:30 0.0 l/m2 in 1 Std. -
Sa, 25.06. 10:00 0.0 l/m2 in 1 Std. -
Ortszeit Stärke Spitze Richtung
km/h Bft. km/h Grad Sektor
Sa, 25.06. 8:00 7 2 18 280° W
Sa, 25.06. 2:00 6 1 20 40° NO
Fr, 24.06. 20:00 11 2 47 150° SO
Fr, 24.06. 14:00 33 5 54 160° S
Fr, 24.06. 8:00 17 3 37 120° SO
Fr, 24.06. 2:00 22 4 40 140° SO
Do, 23.06. 20:00 13 3 33 70° O
Do, 23.06. 14:00 9 2 26 270° W
Ortszeit Stärke Spitze Richtung
km/h Bft. km/h Grad Sektor
Sa, 25.06. 13:00 9 2 20 280° W
Sa, 25.06. 12:40 13 3 - 280° W
Sa, 25.06. 12:30 13 3 20 260° W
Sa, 25.06. 12:20 13 3 - 260° W
Sa, 25.06. 12:10 9 2 - 260° W
Sa, 25.06. 12:00 7 2 22 260° W
Sa, 25.06. 11:50 7 2 - 260° W
Sa, 25.06. 11:30 9 2 20 270° W
Sa, 25.06. 11:00 9 2 17 280° W
Sa, 25.06. 10:30 7 2 11 260° W
Sa, 25.06. 10:00 7 2 18 280° W
Ortszeit Untergrenze Bedeckung Gattung
total tief tief mittel hoch
Sa, 25.06. 8:00 <30 m 8/8 0/8 - - -
Sa, 25.06. 2:00 30 m 8/8 8/8 - - -
Fr, 24.06. 20:00 3300 m 8/8 8/8 - - -
Fr, 24.06. 14:00 6000 m 7/8 5/8 - - -
Fr, 24.06. 8:00 - 0/8 0/8 - - -
Fr, 24.06. 2:00 - 0/8 0/8 - - -
Do, 23.06. 20:00 - 0/8 0/8 - - -
Do, 23.06. 14:00 - 0/8 0/8 - - -
Ortszeit Bedeckungsgrad in Achtel und Wolkenuntergrenze
Sa, 25.06. 13:00 6(510m) 8(4500m) 8(6300m)
Sa, 25.06. 12:40 8
Sa, 25.06. 12:30 7(420m) 8(600m)
Sa, 25.06. 12:20 7(420m) 8(600m)
Sa, 25.06. 12:10 8
Sa, 25.06. 12:00 8(420m)
Sa, 25.06. 11:50 8(420m)
Sa, 25.06. 11:30 8(420m)
Sa, 25.06. 11:00 8(360m)
Sa, 25.06. 10:30 8(270m)
Sa, 25.06. 10:00 8(270m)
Ortszeit Luftdruck NN (hPa) Tendenz (hPa in 3 Std.)
Sa, 25.06. 8:00 1011 + 1,3
Sa, 25.06. 2:00 1010 0,0
Fr, 24.06. 20:00 1009 - 0,7
Fr, 24.06. 14:00 1007 - 1,3
Fr, 24.06. 8:00 1011 - 0,7
Fr, 24.06. 2:00 1012 0,0
Do, 23.06. 20:00 1011 - 0,5
Do, 23.06. 14:00 1013 - 0,8
Ortszeit Luftdruck NN (hPa) Tendenz (hPa in 3 Std.)
Sa, 25.06. 13:00 1012 + 0,7
Sa, 25.06. 12:40 1012 keine Meldung
Sa, 25.06. 12:30 1013 + 0,9
Sa, 25.06. 12:20 1013 keine Meldung
Sa, 25.06. 12:10 1013 keine Meldung
Sa, 25.06. 12:00 1013 + 0,9
Sa, 25.06. 11:50 1013 keine Meldung
Sa, 25.06. 11:30 1013 + 1,1
Sa, 25.06. 11:00 1012 + 1,0
Sa, 25.06. 10:30 1012 + 1,1
Sa, 25.06. 10:00 1012 + 1,0
Ortszeit Schneehöhe (cm)
Sa, 25.06. 8:00 0
Sa, 25.06. 2:00 0
Fr, 24.06. 20:00 0
Fr, 24.06. 14:00 0
Fr, 24.06. 8:00 0
Fr, 24.06. 2:00 0
Do, 23.06. 20:00 0
Do, 23.06. 14:00 0
Ortszeit Schneehöhe (cm)
Sa, 25.06. 13:00 0
Sa, 25.06. 12:40 0
Sa, 25.06. 12:30 0
Sa, 25.06. 12:20 0
Sa, 25.06. 12:10 0
Sa, 25.06. 12:00 0
Sa, 25.06. 11:50 0
Sa, 25.06. 11:30 0
Sa, 25.06. 11:00 0
Sa, 25.06. 10:30 0
Sa, 25.06. 10:00 0
Link zu dieser Seite / Seite empfehlen

Das Wetter in ...